createdAt,value
2023-05-05T00:00:23.117Z,12.13
2023-05-05T00:02:51.841Z,12.06
2023-05-05T00:05:20.352Z,12.00
2023-05-05T00:07:48.553Z,11.99
2023-05-05T00:10:17.317Z,11.77
2023-05-05T00:12:45.674Z,11.70
2023-05-05T00:15:13.879Z,11.62
2023-05-05T00:17:42.268Z,11.70
2023-05-05T00:20:10.782Z,11.47
2023-05-05T00:22:38.955Z,11.26
2023-05-05T00:25:07.733Z,11.11
2023-05-05T00:27:36.988Z,11.11
2023-05-05T00:30:07.192Z,11.12
2023-05-05T00:32:36.554Z,10.93
2023-05-05T00:35:05.494Z,10.91
2023-05-05T00:37:33.743Z,10.82
2023-05-05T00:40:02.201Z,10.76
2023-05-05T00:42:42.443Z,10.68
2023-05-05T00:45:12.337Z,10.59
2023-05-05T00:47:43.406Z,10.73
2023-05-05T00:50:21.640Z,10.83
2023-05-05T00:52:51.184Z,10.70
2023-05-05T00:55:20.595Z,10.60
2023-05-05T00:57:49.750Z,10.38
2023-05-05T01:00:18.126Z,10.27
2023-05-05T01:02:47.001Z,10.39
2023-05-05T01:05:17.161Z,10.33
2023-05-05T01:08:20.953Z,10.26
2023-05-05T01:10:55.095Z,10.02
2023-05-05T01:13:42.927Z,10.06
2023-05-05T01:16:32.199Z,10.01
2023-05-05T01:19:38.359Z,10.11
2023-05-05T01:22:11.917Z,9.96
2023-05-05T01:24:43.459Z,9.90
2023-05-05T01:27:48.070Z,9.93
2023-05-05T01:30:38.340Z,9.96
2023-05-05T01:33:10.613Z,9.83
2023-05-05T01:35:45.901Z,9.74
2023-05-05T01:38:21.696Z,9.73
2023-05-05T01:40:57.358Z,9.64
2023-05-05T01:43:29.586Z,9.63
2023-05-05T01:45:59.426Z,9.58
2023-05-05T01:48:29.920Z,9.54
2023-05-05T01:51:00.742Z,9.49
2023-05-05T01:53:30.245Z,9.55
2023-05-05T01:55:59.023Z,9.48
2023-05-05T01:58:30.268Z,9.48
2023-05-05T02:01:00.352Z,9.46
2023-05-05T02:03:32.112Z,9.49
2023-05-05T02:06:01.728Z,9.46
2023-05-05T02:08:31.619Z,9.34
2023-05-05T02:11:01.243Z,9.33
2023-05-05T02:13:34.814Z,9.26
2023-05-05T02:16:06.224Z,9.23
2023-05-05T02:18:36.427Z,9.33
2023-05-05T02:21:05.114Z,9.21
2023-05-05T02:23:33.982Z,9.22
2023-05-05T02:26:07.829Z,9.14
2023-05-05T02:28:48.644Z,9.20
2023-05-05T02:31:22.781Z,9.18
2023-05-05T02:33:53.561Z,9.10
2023-05-05T02:36:26.053Z,9.13
2023-05-05T02:39:02.203Z,9.11
2023-05-05T02:41:34.799Z,9.12
2023-05-05T02:44:06.714Z,9.01
2023-05-05T02:46:37.239Z,9.07
2023-05-05T02:49:05.346Z,9.07
2023-05-05T02:51:34.086Z,9.06
2023-05-05T02:54:03.566Z,9.07
2023-05-05T02:56:31.694Z,8.99
2023-05-05T02:59:16.476Z,8.91
2023-05-05T03:01:51.543Z,8.98
2023-05-05T03:04:35.361Z,9.02
2023-05-05T03:07:10.993Z,9.02
2023-05-05T03:10:05.554Z,9.00
2023-05-05T03:13:07.879Z,8.98
2023-05-05T03:15:43.296Z,8.96
2023-05-05T03:18:15.669Z,8.85
2023-05-05T03:20:44.834Z,8.88
2023-05-05T03:23:14.648Z,8.87
2023-05-05T03:25:47.886Z,8.90
2023-05-05T03:28:18.068Z,8.79
2023-05-05T03:30:46.314Z,8.89
2023-05-05T03:33:16.597Z,8.89
2023-05-05T03:35:45.135Z,8.72
2023-05-05T03:38:13.713Z,8.84
2023-05-05T03:40:44.636Z,8.76
2023-05-05T03:43:15.524Z,8.84
2023-05-05T03:45:44.356Z,8.79
2023-05-05T03:48:12.694Z,8.75
2023-05-05T03:50:41.258Z,8.81
2023-05-05T03:53:10.514Z,8.79
2023-05-05T03:55:39.439Z,8.73
2023-05-05T03:58:07.953Z,8.70
2023-05-05T04:00:36.644Z,8.74
2023-05-05T04:03:05.244Z,8.86
2023-05-05T04:05:33.594Z,8.94
2023-05-05T04:08:03.357Z,8.93
2023-05-05T04:10:32.274Z,8.96
2023-05-05T04:13:01.739Z,8.96
2023-05-05T04:15:31.004Z,9.14
2023-05-05T04:17:59.677Z,9.27
2023-05-05T04:20:28.497Z,9.35
2023-05-05T04:22:57.863Z,9.34
2023-05-05T04:25:26.323Z,9.29
2023-05-05T04:27:54.742Z,9.31
2023-05-05T04:30:23.773Z,9.38
2023-05-05T04:32:52.346Z,9.48
2023-05-05T04:35:20.983Z,9.55
2023-05-05T04:37:49.876Z,9.46
2023-05-05T04:40:18.638Z,9.56
2023-05-05T04:42:47.074Z,9.71
2023-05-05T04:45:15.569Z,9.66
2023-05-05T04:47:44.164Z,9.83
2023-05-05T04:50:12.566Z,9.97
2023-05-05T04:52:41.482Z,10.02
2023-05-05T04:55:10.744Z,9.99
2023-05-05T04:57:39.219Z,9.88
2023-05-05T05:00:08.974Z,10.01
2023-05-05T05:02:37.868Z,9.97
2023-05-05T05:05:06.602Z,9.96
2023-05-05T05:07:34.789Z,10.01
2023-05-05T05:10:03.841Z,10.19
2023-05-05T05:12:33.454Z,10.22
2023-05-05T05:15:01.871Z,10.35
2023-05-05T05:17:31.404Z,10.41
2023-05-05T05:20:04.816Z,10.51
2023-05-05T05:22:34.883Z,10.63
2023-05-05T05:25:03.676Z,10.75
2023-05-05T05:27:32.150Z,10.77
2023-05-05T05:30:00.665Z,10.87
2023-05-05T05:32:29.638Z,11.00
2023-05-05T05:34:57.908Z,11.16
2023-05-05T05:37:31.020Z,11.29
2023-05-05T05:39:59.888Z,11.41
2023-05-05T05:42:28.477Z,11.56
2023-05-05T05:44:58.723Z,11.75
2023-05-05T05:47:27.236Z,11.92
2023-05-05T05:49:56.598Z,12.02
2023-05-05T05:52:25.071Z,12.18
2023-05-05T05:54:53.391Z,12.27
2023-05-05T05:57:23.772Z,12.43
2023-05-05T05:59:52.342Z,12.52
2023-05-05T06:02:21.030Z,12.63
2023-05-05T06:04:49.686Z,12.78
2023-05-05T06:07:18.199Z,12.82
2023-05-05T06:09:46.757Z,12.80
2023-05-05T06:12:16.357Z,12.96
2023-05-05T06:14:44.886Z,13.14
2023-05-05T06:17:13.168Z,13.27
2023-05-05T06:19:43.420Z,12.11
2023-05-05T06:22:11.896Z,13.38
2023-05-05T06:24:40.381Z,13.46
2023-05-05T06:27:09.354Z,13.61
2023-05-05T06:29:37.572Z,13.68
2023-05-05T06:32:08.518Z,13.80
2023-05-05T06:34:36.968Z,13.75
2023-05-05T06:37:05.472Z,13.83
2023-05-05T06:39:33.798Z,13.90
2023-05-05T06:42:04.184Z,13.84
2023-05-05T06:44:34.660Z,13.97
2023-05-05T06:47:03.818Z,13.97
2023-05-05T06:49:32.177Z,14.09
2023-05-05T06:52:00.565Z,14.19
2023-05-05T06:54:29.344Z,14.33
2023-05-05T06:56:59.689Z,14.44
2023-05-05T06:59:28.208Z,14.35
2023-05-05T07:01:56.961Z,14.51
2023-05-05T07:04:24.982Z,14.70
2023-05-05T07:06:55.389Z,14.89
2023-05-05T07:09:24.287Z,15.06
2023-05-05T07:11:52.926Z,15.10
2023-05-05T07:14:24.347Z,15.28
2023-05-05T07:16:53.212Z,15.32
2023-05-05T07:19:21.366Z,15.35
2023-05-05T07:21:49.879Z,15.31
2023-05-05T07:24:18.804Z,15.74
2023-05-05T07:26:46.907Z,15.92
2023-05-05T07:29:15.250Z,16.43
2023-05-05T07:31:43.856Z,16.73
2023-05-05T07:34:12.338Z,17.29
2023-05-05T07:36:41.083Z,18.12
2023-05-05T07:39:09.810Z,18.19
2023-05-05T07:41:38.091Z,18.35
2023-05-05T07:44:06.577Z,18.89
2023-05-05T07:46:35.203Z,18.87
2023-05-05T07:49:03.794Z,19.50
2023-05-05T07:51:34.396Z,19.73
2023-05-05T07:54:03.310Z,19.57
2023-05-05T07:56:31.863Z,20.18
2023-05-05T07:59:00.662Z,20.02
2023-05-05T08:01:29.168Z,19.98
2023-05-05T08:03:57.834Z,20.41
2023-05-05T08:06:28.023Z,20.63
2023-05-05T08:08:56.200Z,20.20
2023-05-05T08:11:27.780Z,20.99
2023-05-05T08:13:59.025Z,20.61
2023-05-05T08:16:27.771Z,20.92
2023-05-05T08:18:56.293Z,21.19
2023-05-05T08:21:24.595Z,21.07
2023-05-05T08:23:54.165Z,20.62
2023-05-05T08:26:22.895Z,21.05
2023-05-05T08:28:55.387Z,21.38
2023-05-05T08:31:23.820Z,21.66
2023-05-05T08:33:52.119Z,21.63
2023-05-05T08:36:20.489Z,22.08
2023-05-05T08:38:48.951Z,21.93
2023-05-05T08:41:19.938Z,21.79
2023-05-05T08:43:49.448Z,22.10
2023-05-05T08:46:18.096Z,21.65
2023-05-05T08:48:48.635Z,21.82
2023-05-05T08:51:19.740Z,22.49
2023-05-05T08:53:54.074Z,22.32
2023-05-05T08:56:22.466Z,22.56
2023-05-05T08:58:51.725Z,22.73
2023-05-05T09:01:21.087Z,23.00
2023-05-05T09:03:50.366Z,22.83
2023-05-05T09:06:21.331Z,22.68
2023-05-05T09:08:50.708Z,22.31
2023-05-05T09:11:19.032Z,22.93
2023-05-05T09:13:47.550Z,23.43
2023-05-05T09:16:16.399Z,22.56
2023-05-05T09:18:45.732Z,22.12
2023-05-05T09:21:22.309Z,22.61
2023-05-05T09:24:09.611Z,22.61
2023-05-05T09:26:42.560Z,22.79
2023-05-05T09:29:19.592Z,22.79
2023-05-05T09:32:11.204Z,23.47
2023-05-05T09:34:40.599Z,22.89
2023-05-05T09:37:08.909Z,23.14
2023-05-05T09:39:37.018Z,23.18
2023-05-05T09:42:06.523Z,23.05
2023-05-05T09:44:36.428Z,22.99
2023-05-05T09:47:07.329Z,23.59
2023-05-05T09:49:40.797Z,23.14
2023-05-05T09:52:16.622Z,23.37
2023-05-05T09:54:45.765Z,23.11
2023-05-05T09:57:47.469Z,23.60
2023-05-05T10:00:16.611Z,23.12
2023-05-05T10:02:45.600Z,23.35
2023-05-05T10:05:15.401Z,22.38
2023-05-05T10:07:45.267Z,23.19
2023-05-05T10:10:18.211Z,23.47
2023-05-05T10:12:48.132Z,23.61
2023-05-05T10:15:17.175Z,23.57
2023-05-05T10:18:06.165Z,23.86
2023-05-05T10:20:38.204Z,23.79
2023-05-05T10:23:10.637Z,23.48
2023-05-05T10:25:54.869Z,23.56
2023-05-05T10:28:34.448Z,23.67
2023-05-05T10:31:19.953Z,22.95
2023-05-05T10:34:09.227Z,23.40
2023-05-05T10:36:39.216Z,23.65
2023-05-05T10:39:09.499Z,23.96
2023-05-05T10:41:39.071Z,23.60
2023-05-05T10:44:07.938Z,22.86
2023-05-05T10:46:36.497Z,22.28
2023-05-05T10:49:35.512Z,22.26
2023-05-05T10:52:06.795Z,22.42
2023-05-05T10:54:43.531Z,22.36
2023-05-05T10:57:12.346Z,22.70
2023-05-05T10:59:41.935Z,22.02
2023-05-05T11:02:21.341Z,21.75
2023-05-05T11:05:09.523Z,22.04
2023-05-05T11:07:38.318Z,22.33
2023-05-05T11:10:14.529Z,22.61
2023-05-05T11:13:03.229Z,22.62
2023-05-05T11:15:31.653Z,22.70
2023-05-05T11:18:05.815Z,22.67
2023-05-05T11:20:36.516Z,22.58
2023-05-05T11:23:05.164Z,22.54
2023-05-05T11:25:36.900Z,22.55
2023-05-05T11:28:14.482Z,22.56
2023-05-05T11:31:00.766Z,22.47
2023-05-05T11:33:29.976Z,22.55
2023-05-05T11:35:57.866Z,21.86
2023-05-05T11:38:40.107Z,21.66
2023-05-05T11:41:26.870Z,21.55
2023-05-05T11:44:14.948Z,21.80
2023-05-05T11:46:52.413Z,21.50
2023-05-05T11:49:33.990Z,21.55
2023-05-05T11:52:06.211Z,21.53
2023-05-05T11:54:40.658Z,21.26
2023-05-05T11:57:09.136Z,21.52
2023-05-05T11:59:59.365Z,21.65
2023-05-05T12:02:29.573Z,21.50
2023-05-05T12:05:00.195Z,21.65
2023-05-05T12:07:31.196Z,21.83
2023-05-05T12:10:01.183Z,21.86
2023-05-05T12:12:40.282Z,21.77
2023-05-05T12:15:09.717Z,21.65
2023-05-05T12:17:39.760Z,21.59
2023-05-05T12:20:11.006Z,21.59
2023-05-05T12:22:40.663Z,21.60
2023-05-05T12:25:10.070Z,21.31
2023-05-05T12:27:39.034Z,21.34
2023-05-05T12:30:17.885Z,21.47
2023-05-05T12:32:46.722Z,21.52
2023-05-05T12:35:16.043Z,21.39
2023-05-05T12:37:44.581Z,21.27
2023-05-05T12:40:45.211Z,20.95
2023-05-05T12:43:29.570Z,21.13
2023-05-05T12:46:06.506Z,21.29
2023-05-05T12:48:38.190Z,20.92
2023-05-05T12:51:17.520Z,21.01
2023-05-05T12:53:49.661Z,21.18
2023-05-05T12:56:36.479Z,21.31
2023-05-05T12:59:09.807Z,21.27
2023-05-05T13:01:48.664Z,21.28
2023-05-05T13:04:16.915Z,21.26
2023-05-05T13:06:50.240Z,21.28
2023-05-05T13:09:35.936Z,21.26
2023-05-05T13:12:05.272Z,21.17
2023-05-05T13:14:34.156Z,21.24
2023-05-05T13:17:02.342Z,21.21
2023-05-05T13:19:31.258Z,21.35
2023-05-05T13:22:00.018Z,21.50
2023-05-05T13:24:38.563Z,21.51
2023-05-05T13:27:12.072Z,21.24
2023-05-05T13:29:41.584Z,21.27
2023-05-05T13:32:09.750Z,21.33
2023-05-05T13:34:39.599Z,21.51
2023-05-05T13:37:08.709Z,21.44
2023-05-05T13:39:37.045Z,21.51
2023-05-05T13:42:05.792Z,21.51
2023-05-05T13:44:35.370Z,21.51
2023-05-05T13:47:03.739Z,21.50
2023-05-05T13:49:33.043Z,21.64
2023-05-05T13:52:02.810Z,21.70
2023-05-05T13:54:31.001Z,21.38
2023-05-05T13:57:00.640Z,21.20
2023-05-05T13:59:28.917Z,21.26
2023-05-05T14:01:57.129Z,21.20
2023-05-05T14:04:26.023Z,21.37
2023-05-05T14:06:54.650Z,21.50
2023-05-05T14:09:22.869Z,21.58
2023-05-05T14:11:51.581Z,21.68
2023-05-05T14:14:21.171Z,21.62
2023-05-05T14:16:50.387Z,21.57
2023-05-05T14:19:19.156Z,21.58
2023-05-05T14:21:47.448Z,21.66
2023-05-05T14:24:15.678Z,21.65
2023-05-05T14:26:44.262Z,21.56
2023-05-05T14:29:13.133Z,21.50
2023-05-05T14:31:41.285Z,21.49
2023-05-05T14:34:10.152Z,21.47
2023-05-05T14:36:38.386Z,21.45
2023-05-05T14:39:06.885Z,21.47
2023-05-05T14:41:35.703Z,21.52
2023-05-05T14:44:03.879Z,21.52
2023-05-05T14:46:32.296Z,21.61
2023-05-05T14:49:00.888Z,21.57
2023-05-05T14:51:29.090Z,21.35
2023-05-05T14:53:58.087Z,21.46
2023-05-05T14:56:26.673Z,21.66
2023-05-05T14:58:55.330Z,21.80
2023-05-05T15:01:25.789Z,21.77
2023-05-05T15:03:54.876Z,21.90
2023-05-05T15:06:23.254Z,21.94
2023-05-05T15:08:51.701Z,21.69
2023-05-05T15:11:22.086Z,21.55
2023-05-05T15:13:50.611Z,21.51
2023-05-05T15:16:18.774Z,21.41
2023-05-05T15:18:47.449Z,21.34
2023-05-05T15:21:15.841Z,21.31
2023-05-05T15:23:43.874Z,21.34
2023-05-05T15:26:12.799Z,21.30
2023-05-05T15:28:41.282Z,21.24
2023-05-05T15:31:10.619Z,21.20
2023-05-05T15:33:39.829Z,21.20
2023-05-05T15:36:08.593Z,21.20
2023-05-05T15:38:42.497Z,21.11
2023-05-05T15:41:11.284Z,21.07
2023-05-05T15:43:39.210Z,21.01
2023-05-05T15:46:07.507Z,21.00
2023-05-05T15:48:36.212Z,20.95
2023-05-05T15:51:04.909Z,20.91
2023-05-05T15:53:33.164Z,20.77
2023-05-05T15:56:02.655Z,20.73
2023-05-05T15:58:30.915Z,20.73
2023-05-05T16:00:59.326Z,20.66
2023-05-05T16:03:27.986Z,20.56
2023-05-05T16:05:56.193Z,20.52
2023-05-05T16:08:24.592Z,20.48
2023-05-05T16:10:53.055Z,20.41
2023-05-05T16:13:21.460Z,20.37
2023-05-05T16:15:49.893Z,20.30
2023-05-05T16:18:19.202Z,20.24
2023-05-05T16:20:47.411Z,20.18
2023-05-05T16:23:15.662Z,20.11
2023-05-05T16:25:44.798Z,20.05
2023-05-05T16:28:13.269Z,20.03
2023-05-05T16:30:43.530Z,19.98
2023-05-05T16:33:12.284Z,20.01
2023-05-05T16:35:40.518Z,19.95
2023-05-05T16:38:09.300Z,19.93
2023-05-05T16:40:37.946Z,19.89
2023-05-05T16:43:06.435Z,19.83
2023-05-05T16:45:34.578Z,19.79
2023-05-05T16:48:03.367Z,19.69
2023-05-05T16:50:31.712Z,19.63
2023-05-05T16:52:59.816Z,19.56
2023-05-05T16:55:28.411Z,19.51
2023-05-05T16:57:56.524Z,19.42
2023-05-05T17:00:24.763Z,19.34
2023-05-05T17:02:53.727Z,19.27
2023-05-05T17:05:21.864Z,19.22
2023-05-05T17:08:03.285Z,19.14
2023-05-05T17:10:32.144Z,18.99
2023-05-05T17:13:00.300Z,18.93
2023-05-05T17:15:28.965Z,18.85
2023-05-05T17:17:57.287Z,18.75
2023-05-05T17:20:25.624Z,18.65
2023-05-05T17:22:54.658Z,18.56
2023-05-05T17:25:23.144Z,18.45
2023-05-05T17:27:51.285Z,18.34
2023-05-05T17:30:19.584Z,18.23
2023-05-05T17:32:48.757Z,18.12
2023-05-05T17:35:16.891Z,18.02
2023-05-05T17:37:45.461Z,17.89
2023-05-05T17:40:13.991Z,17.85
2023-05-05T17:42:42.328Z,17.83
2023-05-05T17:45:11.814Z,17.64
2023-05-05T17:47:40.410Z,17.62
2023-05-05T17:50:10.851Z,17.65
2023-05-05T17:52:40.752Z,17.56
2023-05-05T17:55:09.772Z,17.59
2023-05-05T17:57:38.481Z,17.54
2023-05-05T18:00:08.296Z,17.45
2023-05-05T18:02:41.349Z,17.40
2023-05-05T18:05:11.098Z,17.29
2023-05-05T18:07:39.746Z,17.30
2023-05-05T18:10:10.546Z,17.30
2023-05-05T18:12:39.222Z,17.06
2023-05-05T18:15:08.828Z,16.81
2023-05-05T18:17:37.493Z,16.69
2023-05-05T18:20:07.280Z,16.73
2023-05-05T18:22:35.891Z,16.74
2023-05-05T18:25:05.940Z,16.60
2023-05-05T18:27:36.394Z,16.54
2023-05-05T18:30:05.936Z,16.44
2023-05-05T18:32:34.104Z,16.33
2023-05-05T18:35:02.841Z,16.15
2023-05-05T18:37:31.074Z,16.01
2023-05-05T18:39:59.053Z,16.07
2023-05-05T18:42:27.643Z,16.00
2023-05-05T18:44:58.935Z,15.83
2023-05-05T18:47:28.718Z,15.79
2023-05-05T18:49:56.985Z,15.85
2023-05-05T18:52:25.181Z,15.82
2023-05-05T18:54:53.640Z,15.77
2023-05-05T18:57:22.208Z,15.70
2023-05-05T18:59:50.337Z,15.88
2023-05-05T19:02:18.846Z,15.90
2023-05-05T19:04:47.110Z,15.85
2023-05-05T19:07:24.060Z,15.82
2023-05-05T19:09:56.934Z,15.72
2023-05-05T19:12:24.974Z,15.58
2023-05-05T19:14:53.106Z,15.29
2023-05-05T19:17:22.251Z,15.16
2023-05-05T19:19:50.636Z,15.04
2023-05-05T19:22:20.609Z,14.93
2023-05-05T19:24:49.192Z,14.91
2023-05-05T19:27:17.350Z,14.87
2023-05-05T19:29:52.807Z,14.76
2023-05-05T19:32:21.757Z,14.70
2023-05-05T19:34:50.220Z,14.64
2023-05-05T19:37:18.410Z,14.68
2023-05-05T19:39:49.010Z,14.58
2023-05-05T19:42:17.734Z,14.51
2023-05-05T19:44:45.992Z,14.41
2023-05-05T19:47:14.320Z,14.54
2023-05-05T19:49:42.408Z,14.34
2023-05-05T19:52:10.629Z,14.34
2023-05-05T19:54:39.415Z,14.42
2023-05-05T19:57:08.512Z,14.31
2023-05-05T19:59:36.694Z,14.30
2023-05-05T20:02:05.342Z,14.21
2023-05-05T20:04:33.730Z,14.32
2023-05-05T20:07:03.681Z,14.43
2023-05-05T20:09:32.018Z,14.39
2023-05-05T20:12:00.342Z,14.38
2023-05-05T20:14:28.480Z,14.21
2023-05-05T20:16:56.733Z,14.04
2023-05-05T20:19:25.212Z,14.08
2023-05-05T20:21:53.492Z,14.20
2023-05-05T20:24:21.705Z,14.22
2023-05-05T20:26:50.651Z,14.22
2023-05-05T20:29:20.252Z,14.24
2023-05-05T20:31:51.288Z,14.15
2023-05-05T20:34:20.153Z,14.17
2023-05-05T20:36:48.520Z,14.13
2023-05-05T20:39:16.914Z,13.86
2023-05-05T20:41:46.419Z,13.91
2023-05-05T20:44:14.738Z,13.93
2023-05-05T20:46:42.859Z,13.84
2023-05-05T20:49:11.263Z,13.78
2023-05-05T20:51:40.050Z,13.73
2023-05-05T20:54:10.020Z,13.65
2023-05-05T20:56:38.500Z,13.55
2023-05-05T20:59:06.868Z,13.41
2023-05-05T21:01:35.477Z,13.50
2023-05-05T21:04:04.183Z,13.34
2023-05-05T21:06:33.028Z,13.34
2023-05-05T21:09:01.159Z,13.25
2023-05-05T21:11:29.942Z,13.19
2023-05-05T21:13:58.349Z,13.19
2023-05-05T21:16:26.614Z,13.30
2023-05-05T21:18:55.048Z,13.31
2023-05-05T21:21:24.656Z,13.34
2023-05-05T21:23:55.218Z,13.34
2023-05-05T21:26:25.075Z,13.21
2023-05-05T21:28:53.615Z,13.22
2023-05-05T21:31:22.853Z,13.15
2023-05-05T21:33:51.817Z,13.19
2023-05-05T21:36:21.004Z,13.05
2023-05-05T21:38:49.809Z,13.06
2023-05-05T21:41:18.433Z,12.93
2023-05-05T21:43:46.931Z,12.96
2023-05-05T21:46:17.214Z,12.89
2023-05-05T21:48:47.344Z,12.85
2023-05-05T21:51:15.982Z,12.80
2023-05-05T21:53:44.527Z,12.81
2023-05-05T21:56:13.081Z,12.78
2023-05-05T21:58:41.602Z,12.85
2023-05-05T22:01:10.176Z,12.75
2023-05-05T22:03:38.764Z,12.57
2023-05-05T22:06:06.919Z,12.71
2023-05-05T22:08:34.985Z,12.71
2023-05-05T22:11:03.589Z,12.60
2023-05-05T22:13:31.891Z,12.52
2023-05-05T22:15:59.986Z,12.32
2023-05-05T22:18:28.434Z,12.35
2023-05-05T22:20:57.228Z,12.29
2023-05-05T22:23:25.351Z,12.26
2023-05-05T22:25:54.162Z,12.35
2023-05-05T22:28:22.907Z,12.35
2023-05-05T22:30:51.262Z,12.19
2023-05-05T22:33:20.061Z,12.16
2023-05-05T22:35:48.419Z,12.10
2023-05-05T22:38:16.795Z,12.19
2023-05-05T22:40:46.098Z,12.29
2023-05-05T22:43:14.534Z,12.28
2023-05-05T22:45:44.052Z,12.32
2023-05-05T22:48:12.572Z,12.36
2023-05-05T22:50:41.434Z,12.32
2023-05-05T22:53:09.632Z,12.16
2023-05-05T22:55:38.765Z,12.13
2023-05-05T22:58:07.166Z,12.09
2023-05-05T23:00:35.319Z,12.05
2023-05-05T23:03:04.585Z,12.10
2023-05-05T23:05:34.484Z,11.97
2023-05-05T23:08:02.651Z,12.12
2023-05-05T23:10:31.332Z,12.16
2023-05-05T23:12:59.428Z,12.09
2023-05-05T23:15:27.903Z,12.06
2023-05-05T23:17:57.027Z,12.12
2023-05-05T23:20:25.564Z,12.12
2023-05-05T23:22:53.685Z,12.02
2023-05-05T23:25:22.141Z,12.01
2023-05-05T23:27:50.660Z,12.06
2023-05-05T23:30:18.966Z,12.03
2023-05-05T23:32:47.849Z,12.01
2023-05-05T23:35:16.388Z,11.96
2023-05-05T23:37:44.456Z,11.91
2023-05-05T23:40:13.000Z,11.80
2023-05-05T23:42:43.012Z,11.73
2023-05-05T23:45:11.609Z,11.68
2023-05-05T23:47:40.518Z,11.70
2023-05-05T23:50:09.305Z,11.52
2023-05-05T23:52:37.399Z,11.48
2023-05-05T23:55:07.213Z,11.46
2023-05-05T23:57:35.987Z,11.47
